createdAt,value
2019-03-19T00:02:46.906Z,3.36
2019-03-19T00:07:48.613Z,3.41
2019-03-19T00:12:50.189Z,3.43
2019-03-19T00:17:51.747Z,3.46
2019-03-19T00:22:53.511Z,3.48
2019-03-19T00:27:55.067Z,3.43
2019-03-19T00:32:57.356Z,3.38
2019-03-19T00:37:59.059Z,3.29
2019-03-19T00:43:00.904Z,3.23
2019-03-19T00:48:03.109Z,3.17
2019-03-19T00:53:04.784Z,3.11
2019-03-19T00:58:06.335Z,3.03
2019-03-19T01:03:08.181Z,3.03
2019-03-19T01:08:09.819Z,2.99
2019-03-19T01:13:11.373Z,2.97
2019-03-19T01:18:12.960Z,2.94
2019-03-19T01:23:14.812Z,2.93
2019-03-19T01:28:16.546Z,2.92
2019-03-19T01:33:18.083Z,2.87
2019-03-19T01:38:19.635Z,2.85
2019-03-19T01:43:21.180Z,2.80
2019-03-19T01:48:22.841Z,2.82
2019-03-19T01:53:24.397Z,2.77
2019-03-19T01:58:25.999Z,2.79
2019-03-19T02:03:27.607Z,2.82
2019-03-19T02:08:29.294Z,2.79
2019-03-19T02:13:30.853Z,2.79
2019-03-19T02:18:32.428Z,2.76
2019-03-19T02:23:33.986Z,2.73
2019-03-19T02:28:35.631Z,2.75
2019-03-19T02:33:37.194Z,2.74
2019-03-19T02:38:38.806Z,2.69
2019-03-19T02:43:40.348Z,2.65
2019-03-19T02:48:42.005Z,2.59
2019-03-19T02:53:43.564Z,2.58
2019-03-19T02:58:45.214Z,2.50
2019-03-19T03:03:46.870Z,2.46
2019-03-19T03:08:49.577Z,2.44
2019-03-19T03:13:51.234Z,2.41
2019-03-19T03:18:52.825Z,2.41
2019-03-19T03:23:54.392Z,2.39
2019-03-19T03:28:55.935Z,2.43
2019-03-19T03:33:57.513Z,2.40
2019-03-19T03:38:59.068Z,2.37
2019-03-19T03:44:00.617Z,2.33
2019-03-19T03:49:02.739Z,2.36
2019-03-19T03:54:04.299Z,2.41
2019-03-19T03:59:06.243Z,2.41
2019-03-19T04:04:07.794Z,2.25
2019-03-19T04:09:09.671Z,2.25
2019-03-19T04:14:11.322Z,2.25
2019-03-19T04:19:13.107Z,2.19
2019-03-19T04:24:14.676Z,2.12
2019-03-19T04:29:16.237Z,2.08
2019-03-19T04:34:17.794Z,2.11
2019-03-19T04:39:19.343Z,2.11
2019-03-19T04:44:20.943Z,2.06
2019-03-19T04:49:22.631Z,2.04
2019-03-19T04:54:24.230Z,2.03
2019-03-19T04:59:25.893Z,2.01
2019-03-19T05:04:27.482Z,2.00
2019-03-19T05:09:29.035Z,2.03
2019-03-19T05:14:30.663Z,2.09
2019-03-19T05:19:32.552Z,2.08
2019-03-19T05:24:34.114Z,2.14
2019-03-19T05:29:35.661Z,2.22
2019-03-19T05:34:37.215Z,2.27
2019-03-19T05:39:38.768Z,2.38
2019-03-19T05:44:40.600Z,2.51
2019-03-19T05:49:42.273Z,2.59
2019-03-19T05:54:46.031Z,2.69
2019-03-19T05:59:51.694Z,2.90
2019-03-19T06:04:54.039Z,3.07
2019-03-19T06:09:55.601Z,3.19
2019-03-19T06:14:57.201Z,3.34
2019-03-19T06:19:58.765Z,3.43
2019-03-19T06:25:00.431Z,3.57
2019-03-19T06:30:08.889Z,3.81
2019-03-19T06:35:11.887Z,4.13
2019-03-19T06:40:18.368Z,4.32
2019-03-19T06:45:22.891Z,4.55
2019-03-19T06:50:24.253Z,4.69
2019-03-19T06:55:25.803Z,4.88
2019-03-19T07:00:27.439Z,5.05
2019-03-19T07:05:29.103Z,5.37
2019-03-19T07:10:31.180Z,5.72
2019-03-19T07:15:32.792Z,5.93
2019-03-19T07:20:34.358Z,5.85
2019-03-19T07:25:35.913Z,5.89
2019-03-19T07:30:37.570Z,5.83
2019-03-19T07:35:42.179Z,5.70
2019-03-19T07:40:43.998Z,5.60
2019-03-19T07:45:45.621Z,5.45
2019-03-19T07:50:47.261Z,5.80
2019-03-19T07:55:48.871Z,6.04
2019-03-19T08:00:50.420Z,5.93
2019-03-19T08:05:51.980Z,5.86
2019-03-19T08:10:54.065Z,5.77
2019-03-19T08:15:55.822Z,5.76
2019-03-19T08:20:57.431Z,5.87
2019-03-19T08:25:58.991Z,5.99
2019-03-19T08:31:00.546Z,5.96
2019-03-19T08:36:09.293Z,6.40
2019-03-19T08:41:05.570Z,7.15
2019-03-19T08:46:07.131Z,7.60
2019-03-19T08:51:08.851Z,7.60
2019-03-19T08:56:10.797Z,7.67
2019-03-19T09:01:12.445Z,7.41
2019-03-19T09:06:14.408Z,7.02
2019-03-19T09:11:15.964Z,7.07
2019-03-19T09:16:17.615Z,7.15
2019-03-19T09:21:19.238Z,6.71
2019-03-19T09:26:20.792Z,6.52
2019-03-19T09:31:22.345Z,6.46
2019-03-19T09:36:25.813Z,6.74
2019-03-19T09:41:27.374Z,6.83
2019-03-19T09:46:29.344Z,6.97
2019-03-19T09:51:31.064Z,7.07
2019-03-19T09:56:33.727Z,7.41
2019-03-19T10:01:35.358Z,7.72
2019-03-19T10:06:36.920Z,7.43
2019-03-19T10:11:38.591Z,7.18
2019-03-19T10:16:40.142Z,6.96
2019-03-19T10:21:41.990Z,6.77
2019-03-19T10:26:43.551Z,6.61
2019-03-19T10:31:45.145Z,6.69
2019-03-19T10:36:46.691Z,7.20
2019-03-19T10:41:48.244Z,7.18
2019-03-19T10:46:49.791Z,6.86
2019-03-19T10:51:51.492Z,6.68
2019-03-19T10:56:53.147Z,6.58
2019-03-19T11:01:54.738Z,6.48
2019-03-19T11:06:56.944Z,6.45
2019-03-19T11:11:58.498Z,6.30
2019-03-19T11:17:00.053Z,6.28
2019-03-19T11:22:01.610Z,6.47
2019-03-19T11:27:03.407Z,7.09
2019-03-19T11:32:05.964Z,7.78
2019-03-19T11:37:07.871Z,7.79
2019-03-19T11:42:09.535Z,7.49
2019-03-19T11:47:12.190Z,7.25
2019-03-19T11:52:13.958Z,7.35
2019-03-19T11:57:15.499Z,8.14
2019-03-19T12:02:25.576Z,8.24
2019-03-19T12:07:20.904Z,7.99
2019-03-19T12:12:22.561Z,7.71
2019-03-19T12:17:24.120Z,7.53
2019-03-19T12:22:26.017Z,7.47
2019-03-19T12:27:27.570Z,7.78
2019-03-19T12:32:29.122Z,8.52
2019-03-19T12:37:30.752Z,8.95
2019-03-19T12:42:32.320Z,8.72
2019-03-19T12:47:33.908Z,8.80
2019-03-19T12:52:35.705Z,8.42
2019-03-19T12:57:37.274Z,8.06
2019-03-19T13:02:38.865Z,7.86
2019-03-19T13:07:40.429Z,7.73
2019-03-19T13:12:41.977Z,7.62
2019-03-19T13:17:43.979Z,8.51
2019-03-19T13:22:46.984Z,8.70
2019-03-19T13:27:48.857Z,9.09
2019-03-19T13:32:51.408Z,9.07
2019-03-19T13:37:53.223Z,8.77
2019-03-19T13:42:54.809Z,8.41
2019-03-19T13:47:56.365Z,8.23
2019-03-19T13:52:58.026Z,8.12
2019-03-19T13:57:59.581Z,8.06
2019-03-19T14:03:01.146Z,7.90
2019-03-19T14:08:03.075Z,7.79
2019-03-19T14:13:04.986Z,8.41
2019-03-19T14:18:06.541Z,8.47
2019-03-19T14:23:08.201Z,8.38
2019-03-19T14:28:09.868Z,8.78
2019-03-19T14:33:11.411Z,8.77
2019-03-19T14:38:12.980Z,9.18
2019-03-19T14:43:15.081Z,9.34
2019-03-19T14:48:16.673Z,8.96
2019-03-19T14:53:18.308Z,8.63
2019-03-19T14:58:19.993Z,8.40
2019-03-19T15:03:21.658Z,8.07
2019-03-19T15:08:25.423Z,7.73
2019-03-19T15:13:26.667Z,7.52
2019-03-19T15:18:28.236Z,7.36
2019-03-19T15:23:29.892Z,7.18
2019-03-19T15:28:31.526Z,7.13
2019-03-19T15:33:33.085Z,7.13
2019-03-19T15:38:34.740Z,7.13
2019-03-19T15:43:36.670Z,7.12
2019-03-19T15:48:38.341Z,7.04
2019-03-19T15:53:41.060Z,7.02
2019-03-19T15:58:42.616Z,6.94
2019-03-19T16:03:44.745Z,6.92
2019-03-19T16:08:46.594Z,6.92
2019-03-19T16:13:48.196Z,6.89
2019-03-19T16:18:49.954Z,6.91
2019-03-19T16:23:53.156Z,6.89
2019-03-19T16:28:55.736Z,6.87
2019-03-19T16:33:59.140Z,6.82
2019-03-19T16:39:04.861Z,6.76
2019-03-19T16:44:06.421Z,6.67
2019-03-19T16:49:08.042Z,6.62
2019-03-19T16:54:11.004Z,6.60
2019-03-19T16:59:15.641Z,6.54
2019-03-19T17:04:19.320Z,6.51
2019-03-19T17:09:21.138Z,6.45
2019-03-19T17:14:24.144Z,6.42
2019-03-19T17:19:28.282Z,6.44
2019-03-19T17:24:31.837Z,6.41
2019-03-19T17:29:35.716Z,6.42
2019-03-19T17:34:38.928Z,6.37
2019-03-19T17:39:40.516Z,6.33
2019-03-19T17:44:44.283Z,6.29
2019-03-19T17:49:47.990Z,6.23
2019-03-19T17:54:50.211Z,6.16
2019-03-19T17:59:53.640Z,6.09
2019-03-19T18:04:56.644Z,5.99
2019-03-19T18:09:59.549Z,5.75
2019-03-19T18:15:03.624Z,5.66
2019-03-19T18:20:09.656Z,5.58
2019-03-19T18:25:13.467Z,5.46
2019-03-19T18:30:22.070Z,5.35
2019-03-19T18:35:23.632Z,5.33
2019-03-19T18:40:25.193Z,5.30
2019-03-19T18:45:26.745Z,5.21
2019-03-19T18:50:28.374Z,5.15
2019-03-19T18:55:30.012Z,5.08
2019-03-19T19:00:31.680Z,5.03
2019-03-19T19:05:33.345Z,4.95
2019-03-19T19:10:37.328Z,4.90
2019-03-19T19:15:40.798Z,4.90
2019-03-19T19:20:44.328Z,4.86
2019-03-19T19:25:47.321Z,4.79
2019-03-19T19:30:50.041Z,4.66
2019-03-19T19:35:51.872Z,4.55
2019-03-19T19:40:56.663Z,4.46
2019-03-19T19:45:58.387Z,4.40
2019-03-19T19:51:01.306Z,4.36
2019-03-19T19:56:04.405Z,4.36
2019-03-19T20:01:09.148Z,4.37
2019-03-19T20:06:10.721Z,4.32
2019-03-19T20:11:14.208Z,4.27
2019-03-19T20:16:18.338Z,4.15
2019-03-19T20:21:20.312Z,4.15
2019-03-19T20:26:23.841Z,4.01
2019-03-19T20:31:27.008Z,3.97
2019-03-19T20:36:28.870Z,3.93
2019-03-19T20:41:31.247Z,3.83
2019-03-19T20:46:35.943Z,3.77
2019-03-19T20:51:39.182Z,3.73
2019-03-19T20:56:42.226Z,3.65
2019-03-19T21:01:44.010Z,3.58
2019-03-19T21:06:47.576Z,3.48
2019-03-19T21:11:53.241Z,3.35
2019-03-19T21:16:57.470Z,3.29
2019-03-19T21:22:00.719Z,3.27
2019-03-19T21:27:02.488Z,3.26
2019-03-19T21:32:04.201Z,3.20
2019-03-19T21:37:06.853Z,3.17
2019-03-19T21:42:09.044Z,3.10
2019-03-19T21:47:10.733Z,3.07
2019-03-19T21:52:14.243Z,3.03
2019-03-19T21:57:15.994Z,3.00
2019-03-19T22:02:18.854Z,2.99
2019-03-19T22:07:20.432Z,2.95
2019-03-19T22:12:22.327Z,2.98
2019-03-19T22:17:25.271Z,2.98
2019-03-19T22:22:28.371Z,2.95
2019-03-19T22:27:31.556Z,2.91
2019-03-19T22:32:34.660Z,2.85
2019-03-19T22:37:36.261Z,2.83
2019-03-19T22:42:38.024Z,2.82
2019-03-19T22:47:40.150Z,2.80
2019-03-19T22:52:43.396Z,2.73
2019-03-19T22:57:45.302Z,2.66
2019-03-19T23:02:47.242Z,2.58
2019-03-19T23:07:49.139Z,2.50
2019-03-19T23:12:50.868Z,2.46
2019-03-19T23:17:52.630Z,2.42
2019-03-19T23:22:54.307Z,2.35
2019-03-19T23:27:55.910Z,2.26
2019-03-19T23:32:57.599Z,2.08
2019-03-19T23:37:59.151Z,1.87
2019-03-19T23:43:00.963Z,1.92
2019-03-19T23:48:02.870Z,1.94
2019-03-19T23:53:04.527Z,1.96
2019-03-19T23:58:06.164Z,1.93
